Bogota, Colombia
Current Conditions -  °F | °C
As of 1:00 AM on Wednesday 22 Oct 2014 (Local Time) from SKBO Reporting Station
Rain Showers Rain Showers  
Wind Chill: 12°   Ceiling: Unl
Heat Index: 12°   Visibility: 6mi
Dew Point: 10°   Wind: 6mph
Humidity: 88%   Direction: 50°NE
Pressure: 30.35"   Gusts: NA
Location:  4.63°N, 74.09°W
Report Text: SKBO 220600Z 05005KT 9999 VCSH SCT015 SCT070 12/10 A3035 RMKVCSH/NE/SE
Loading
Personal Weather Stations






























Interactive Weather Map New forecast layout! Learn more

10-Day Weather Forecast

Advertisements
Track Severe Weather on mobile